createdAt,value
2019-05-30T00:00:53.861Z,1.67
2019-05-30T00:03:26.508Z,1.60
2019-05-30T00:06:00.564Z,3.10
2019-05-30T00:08:34.422Z,1.73
2019-05-30T00:11:08.422Z,2.07
2019-05-30T00:13:40.271Z,2.37
2019-05-30T00:16:13.206Z,2.83
2019-05-30T00:18:47.164Z,2.47
2019-05-30T00:21:20.009Z,2.60
2019-05-30T00:23:52.866Z,2.70
2019-05-30T00:26:25.612Z,3.23
2019-05-30T00:28:58.219Z,2.80
2019-05-30T00:31:31.637Z,2.67
2019-05-30T00:34:05.606Z,3.03
2019-05-30T00:36:38.311Z,3.00
2019-05-30T00:39:11.406Z,3.90
2019-05-30T00:41:42.847Z,2.70
2019-05-30T00:44:17.301Z,2.70
2019-05-30T00:46:49.929Z,3.10
2019-05-30T00:49:21.523Z,2.80
2019-05-30T00:51:56.901Z,2.55
2019-05-30T00:54:29.417Z,2.22
2019-05-30T00:57:04.922Z,2.23
2019-05-30T00:59:38.189Z,2.17
2019-05-30T01:02:12.341Z,2.80
2019-05-30T01:04:46.401Z,1.80
2019-05-30T01:07:18.432Z,2.23
2019-05-30T01:09:51.514Z,1.83
2019-05-30T01:12:25.111Z,1.70
2019-05-30T01:14:57.145Z,1.73
2019-05-30T01:17:29.236Z,1.40
2019-05-30T01:20:03.117Z,1.47
2019-05-30T01:22:35.685Z,1.07
2019-05-30T01:25:08.401Z,1.40
2019-05-30T01:27:42.134Z,1.53
2019-05-30T01:30:17.795Z,1.30
2019-05-30T01:32:51.075Z,1.43
2019-05-30T01:35:24.130Z,1.20
2019-05-30T01:37:55.886Z,1.27
2019-05-30T01:40:28.436Z,0.93
2019-05-30T01:43:02.094Z,1.10
2019-05-30T01:45:34.184Z,0.90
2019-05-30T01:48:06.508Z,0.77
2019-05-30T01:50:39.247Z,1.30
2019-05-30T01:53:10.454Z,1.13
2019-05-30T01:55:50.243Z,0.97
2019-05-30T01:58:23.764Z,1.12
2019-05-30T02:00:55.018Z,1.07
2019-05-30T02:03:29.435Z,0.87
2019-05-30T02:06:03.249Z,1.00
2019-05-30T02:08:35.920Z,1.00
2019-05-30T02:11:09.645Z,1.07
2019-05-30T02:13:42.774Z,0.97
2019-05-30T02:16:15.216Z,1.20
2019-05-30T02:18:47.152Z,0.90
2019-05-30T02:21:19.045Z,0.93
2019-05-30T02:23:50.568Z,1.07
2019-05-30T02:26:23.969Z,0.77
2019-05-30T02:28:56.259Z,0.90
2019-05-30T02:31:38.973Z,0.68
2019-05-30T02:34:05.292Z,0.80
2019-05-30T02:36:37.752Z,0.73
2019-05-30T02:39:11.361Z,1.07
2019-05-30T02:41:46.393Z,0.90
2019-05-30T02:44:18.593Z,0.83
2019-05-30T02:46:52.199Z,1.20
2019-05-30T02:49:24.329Z,0.75
2019-05-30T02:51:55.433Z,0.70
2019-05-30T02:54:29.071Z,0.80
2019-05-30T02:57:03.406Z,1.12
2019-05-30T02:59:35.822Z,1.20
2019-05-30T03:02:16.789Z,0.73
2019-05-30T03:05:01.630Z,1.00
2019-05-30T03:07:35.050Z,0.72
2019-05-30T03:10:11.711Z,0.93
2019-05-30T03:12:41.396Z,0.70
2019-05-30T03:15:15.587Z,0.70
2019-05-30T03:17:48.799Z,0.70
2019-05-30T03:20:23.691Z,0.63
2019-05-30T03:22:55.629Z,0.70
2019-05-30T03:25:29.251Z,0.80
2019-05-30T03:28:02.775Z,0.70
2019-05-30T03:30:34.908Z,0.65
2019-05-30T03:33:26.587Z,0.77
2019-05-30T03:35:44.686Z,0.87
2019-05-30T03:38:18.314Z,0.80
2019-05-30T03:40:49.751Z,1.03
2019-05-30T03:43:21.288Z,0.75
2019-05-30T03:45:54.329Z,0.70
2019-05-30T03:48:27.080Z,0.80
2019-05-30T03:51:00.128Z,0.75
2019-05-30T03:53:33.578Z,0.90
2019-05-30T03:56:12.026Z,1.07
2019-05-30T03:58:57.325Z,0.70
2019-05-30T04:01:34.865Z,0.63
2019-05-30T04:04:20.160Z,0.93
2019-05-30T04:06:57.418Z,0.70
2019-05-30T04:09:30.163Z,0.60
2019-05-30T04:12:14.864Z,0.63
2019-05-30T04:14:52.404Z,0.80
2019-05-30T04:17:23.739Z,0.90
2019-05-30T04:19:55.796Z,0.95
2019-05-30T04:22:32.299Z,0.93
2019-05-30T04:25:05.043Z,0.65
2019-05-30T04:27:36.412Z,0.70
2019-05-30T04:30:10.003Z,0.90
2019-05-30T04:32:46.131Z,1.00
2019-05-30T04:35:19.028Z,0.90
2019-05-30T04:37:51.275Z,0.50
2019-05-30T04:40:22.477Z,0.63
2019-05-30T04:42:53.716Z,0.60
2019-05-30T04:45:27.937Z,0.60
2019-05-30T04:47:58.569Z,0.80
2019-05-30T04:50:30.017Z,0.90
2019-05-30T04:53:02.584Z,0.67
2019-05-30T04:55:36.526Z,0.93
2019-05-30T04:58:11.101Z,0.60
2019-05-30T05:00:43.838Z,0.67
2019-05-30T05:03:28.817Z,0.60
2019-05-30T05:05:52.721Z,0.70
2019-05-30T05:08:24.450Z,0.80
2019-05-30T05:10:57.361Z,0.90
2019-05-30T05:13:29.763Z,0.80
2019-05-30T05:16:01.972Z,0.80
2019-05-30T05:18:35.332Z,0.77
2019-05-30T05:21:07.196Z,0.70
2019-05-30T05:23:38.358Z,0.70
2019-05-30T05:26:11.782Z,0.80
2019-05-30T05:28:43.100Z,1.00
2019-05-30T05:31:14.709Z,0.70
2019-05-30T05:33:56.536Z,0.67
2019-05-30T05:36:25.210Z,0.83
2019-05-30T05:38:57.720Z,1.10
2019-05-30T05:41:31.733Z,0.72
2019-05-30T05:44:03.832Z,0.73
2019-05-30T05:46:36.409Z,0.70
2019-05-30T05:49:08.293Z,0.70
2019-05-30T05:51:39.673Z,0.63
2019-05-30T05:54:10.762Z,0.80
2019-05-30T05:56:43.077Z,0.90
2019-05-30T05:59:17.005Z,0.70
2019-05-30T06:01:49.157Z,0.70
2019-05-30T06:04:21.133Z,0.80
2019-05-30T06:06:53.540Z,0.60
2019-05-30T06:09:25.853Z,0.90
2019-05-30T06:11:59.349Z,0.78
2019-05-30T06:14:32.329Z,0.83
2019-05-30T06:17:04.592Z,0.70
2019-05-30T06:19:46.475Z,1.00
2019-05-30T06:22:17.398Z,0.93
2019-05-30T06:24:51.439Z,0.80
2019-05-30T06:27:24.564Z,0.90
2019-05-30T06:29:58.595Z,1.00
2019-05-30T06:32:32.500Z,1.00
2019-05-30T06:35:04.877Z,0.90
2019-05-30T06:37:38.054Z,1.07
2019-05-30T06:40:10.459Z,0.90
2019-05-30T06:42:43.634Z,1.23
2019-05-30T06:45:16.008Z,0.90
2019-05-30T06:47:48.423Z,0.90
2019-05-30T06:50:24.626Z,0.60
2019-05-30T06:52:58.756Z,0.90
2019-05-30T06:55:32.568Z,1.00
2019-05-30T06:58:03.687Z,0.60
2019-05-30T07:00:34.962Z,0.80
2019-05-30T07:03:07.107Z,0.90
2019-05-30T07:05:38.689Z,0.60
2019-05-30T07:08:13.245Z,0.50
2019-05-30T07:10:47.142Z,1.07
2019-05-30T07:13:19.367Z,0.90
2019-05-30T07:15:52.487Z,1.00
2019-05-30T07:18:25.704Z,1.00
2019-05-30T07:20:58.484Z,1.20
2019-05-30T07:23:39.227Z,0.80
2019-05-30T07:26:13.199Z,1.00
2019-05-30T07:28:44.836Z,1.40
2019-05-30T07:31:16.127Z,0.80
2019-05-30T07:33:47.959Z,0.93
2019-05-30T07:36:20.971Z,1.00
2019-05-30T07:38:54.207Z,0.70
2019-05-30T07:41:28.772Z,1.00
2019-05-30T07:44:00.911Z,0.70
2019-05-30T07:46:33.586Z,1.65
2019-05-30T07:49:05.761Z,1.02
2019-05-30T07:51:39.006Z,0.90
2019-05-30T07:54:10.368Z,0.67
2019-05-30T07:56:42.378Z,1.17
2019-05-30T07:59:14.080Z,1.33
2019-05-30T08:01:47.126Z,0.87
2019-05-30T08:04:21.223Z,0.80
2019-05-30T08:06:53.697Z,0.90
2019-05-30T08:09:29.208Z,0.80
2019-05-30T08:12:02.567Z,1.50
2019-05-30T08:14:35.279Z,0.90
2019-05-30T08:17:09.470Z,0.98
2019-05-30T08:19:43.457Z,1.20
2019-05-30T08:22:17.659Z,1.07
2019-05-30T08:24:51.389Z,0.90
2019-05-30T08:27:40.263Z,1.20
2019-05-30T08:30:15.675Z,1.50
2019-05-30T08:32:48.392Z,1.60
2019-05-30T08:35:21.920Z,1.03
2019-05-30T08:37:55.822Z,0.80
2019-05-30T08:40:31.131Z,1.00
2019-05-30T08:43:08.688Z,0.80
2019-05-30T08:45:40.576Z,1.17
2019-05-30T08:48:12.617Z,0.80
2019-05-30T08:50:45.921Z,1.20
2019-05-30T08:53:18.844Z,0.90
2019-05-30T08:55:52.346Z,0.50
2019-05-30T08:58:27.343Z,0.70
2019-05-30T09:00:59.902Z,0.72
2019-05-30T09:03:33.088Z,0.80
2019-05-30T09:06:04.662Z,0.62
2019-05-30T09:08:39.952Z,0.70
2019-05-30T09:11:11.624Z,0.37
2019-05-30T09:13:46.684Z,0.60
2019-05-30T09:16:20.427Z,0.43
2019-05-30T09:18:57.619Z,0.80
2019-05-30T09:21:41.351Z,0.70
2019-05-30T09:24:13.283Z,0.90
2019-05-30T09:26:47.448Z,0.73
2019-05-30T09:29:19.194Z,1.27
2019-05-30T09:31:50.421Z,0.70
2019-05-30T09:34:24.007Z,1.00
2019-05-30T09:36:58.232Z,0.80
2019-05-30T09:39:34.108Z,0.87
2019-05-30T09:42:07.994Z,0.90
2019-05-30T09:44:41.101Z,0.88
2019-05-30T09:47:14.766Z,1.57
2019-05-30T09:49:48.588Z,1.53
2019-05-30T09:52:20.706Z,1.10
2019-05-30T09:54:53.570Z,0.90
2019-05-30T09:57:27.662Z,1.13
2019-05-30T10:00:01.783Z,0.72
2019-05-30T10:02:34.201Z,0.90
2019-05-30T10:05:09.921Z,0.88
2019-05-30T10:07:43.549Z,0.70
2019-05-30T10:10:16.292Z,0.87
2019-05-30T10:12:50.387Z,0.90
2019-05-30T10:15:23.223Z,0.87
2019-05-30T10:17:56.996Z,0.70
2019-05-30T10:20:29.957Z,1.10
2019-05-30T10:23:03.706Z,0.73
2019-05-30T10:25:36.329Z,0.70
2019-05-30T10:28:08.773Z,0.80
2019-05-30T10:30:40.442Z,0.62
2019-05-30T10:33:12.749Z,0.70
2019-05-30T10:35:47.355Z,1.00
2019-05-30T10:39:08.054Z,0.67
2019-05-30T10:41:49.057Z,0.90
2019-05-30T10:44:21.521Z,0.50
2019-05-30T10:46:54.548Z,0.70
2019-05-30T10:49:34.606Z,1.00
2019-05-30T10:52:01.856Z,0.80
2019-05-30T10:54:34.329Z,1.37
2019-05-30T10:57:07.526Z,1.15
2019-05-30T10:59:40.319Z,1.27
2019-05-30T11:02:13.244Z,1.20
2019-05-30T11:04:47.789Z,0.90
2019-05-30T11:07:33.970Z,0.80
2019-05-30T11:10:11.443Z,1.17
2019-05-30T11:12:44.271Z,0.90
2019-05-30T11:15:16.298Z,0.83
2019-05-30T11:17:50.541Z,0.70
2019-05-30T11:20:23.327Z,0.60
2019-05-30T11:22:54.744Z,1.07
2019-05-30T11:25:26.689Z,0.70
2019-05-30T11:28:00.088Z,1.27
2019-05-30T11:30:33.000Z,0.95
2019-05-30T11:33:06.241Z,0.90
2019-05-30T11:35:37.932Z,1.13
2019-05-30T11:38:11.375Z,1.23
2019-05-30T11:40:45.360Z,0.80
2019-05-30T11:43:18.837Z,1.25
2019-05-30T11:45:51.638Z,0.90
2019-05-30T11:48:23.305Z,1.50
2019-05-30T11:50:57.890Z,1.20
2019-05-30T11:53:29.892Z,1.20
2019-05-30T11:56:03.904Z,0.93
2019-05-30T11:58:36.116Z,0.97
2019-05-30T12:01:08.311Z,1.10
2019-05-30T12:03:40.159Z,0.87
2019-05-30T12:06:12.675Z,1.10
2019-05-30T12:08:44.823Z,1.07
2019-05-30T12:11:15.941Z,1.00
2019-05-30T12:13:48.202Z,0.70
2019-05-30T12:16:20.544Z,0.97
2019-05-30T12:18:53.951Z,0.80
2019-05-30T12:21:29.806Z,0.60
2019-05-30T12:24:02.393Z,0.60
2019-05-30T12:26:34.746Z,1.00
2019-05-30T12:29:07.315Z,0.82
2019-05-30T12:31:39.695Z,0.80
2019-05-30T12:34:13.695Z,0.60
2019-05-30T12:36:45.538Z,0.70
2019-05-30T12:39:19.813Z,0.60
2019-05-30T12:41:53.415Z,0.77
2019-05-30T12:44:26.872Z,0.80
2019-05-30T12:46:59.236Z,0.97
2019-05-30T12:49:32.473Z,0.80
2019-05-30T12:52:03.519Z,1.30
2019-05-30T12:54:36.255Z,1.20
2019-05-30T12:57:08.354Z,1.17
2019-05-30T12:59:39.826Z,1.20
2019-05-30T13:02:13.358Z,0.80
2019-05-30T13:04:45.414Z,0.70
2019-05-30T13:07:18.290Z,0.83
2019-05-30T13:09:50.093Z,0.80
2019-05-30T13:12:21.196Z,0.90
2019-05-30T13:14:55.491Z,0.78
2019-05-30T13:17:27.136Z,0.80
2019-05-30T13:20:01.474Z,0.60
2019-05-30T13:22:32.958Z,0.70
2019-05-30T13:25:05.692Z,0.68
2019-05-30T13:27:37.920Z,0.73
2019-05-30T13:30:10.938Z,0.67
2019-05-30T13:32:42.945Z,0.60
2019-05-30T13:35:17.234Z,0.70
2019-05-30T13:37:48.663Z,0.93
2019-05-30T13:40:24.893Z,0.70
2019-05-30T13:42:54.319Z,0.67
2019-05-30T13:45:26.524Z,0.90
2019-05-30T13:48:02.465Z,0.50
2019-05-30T13:50:35.051Z,0.73
2019-05-30T13:53:09.214Z,0.60
2019-05-30T13:55:41.783Z,0.70
2019-05-30T13:58:14.488Z,0.93
2019-05-30T14:00:46.777Z,0.47
2019-05-30T14:03:20.265Z,0.60
2019-05-30T14:05:51.918Z,0.60
2019-05-30T14:08:25.281Z,0.80
2019-05-30T14:10:57.562Z,0.80
2019-05-30T14:13:30.537Z,0.70
2019-05-30T14:16:03.261Z,0.50
2019-05-30T14:18:36.407Z,0.62
2019-05-30T14:21:09.500Z,0.82
2019-05-30T14:23:40.675Z,0.60
2019-05-30T14:26:13.035Z,0.70
2019-05-30T14:28:45.519Z,0.60
2019-05-30T14:31:17.714Z,0.63
2019-05-30T14:34:02.098Z,0.80
2019-05-30T14:36:37.660Z,0.53
2019-05-30T14:39:11.233Z,0.77
2019-05-30T14:41:44.126Z,1.00
2019-05-30T14:44:15.386Z,0.60
2019-05-30T14:46:59.701Z,0.53
2019-05-30T14:49:32.092Z,0.80
2019-05-30T14:52:11.853Z,1.07
2019-05-30T14:54:47.030Z,0.70
2019-05-30T14:57:26.328Z,0.80
2019-05-30T14:59:58.417Z,0.80
2019-05-30T15:02:35.693Z,1.13
2019-05-30T15:05:11.458Z,0.60
2019-05-30T15:07:42.729Z,0.73
2019-05-30T15:10:14.343Z,0.80
2019-05-30T15:12:45.660Z,0.87
2019-05-30T15:15:18.789Z,0.70
2019-05-30T15:17:50.438Z,0.63
2019-05-30T15:20:22.947Z,0.80
2019-05-30T15:22:54.954Z,0.90
2019-05-30T15:25:26.193Z,0.80
2019-05-30T15:27:57.962Z,0.90
2019-05-30T15:30:30.462Z,0.80
2019-05-30T15:33:02.472Z,0.93
2019-05-30T15:35:35.284Z,0.98
2019-05-30T15:38:08.784Z,0.55
2019-05-30T15:40:41.173Z,1.00
2019-05-30T15:43:13.428Z,0.98
2019-05-30T15:45:45.502Z,0.80
2019-05-30T15:48:22.271Z,0.80
2019-05-30T15:50:54.649Z,0.73
2019-05-30T15:53:27.138Z,0.80
2019-05-30T15:55:59.638Z,0.80
2019-05-30T15:58:32.954Z,0.70
2019-05-30T16:01:05.164Z,0.80
2019-05-30T16:03:36.917Z,1.10
2019-05-30T16:06:08.100Z,0.60
2019-05-30T16:08:45.393Z,0.70
2019-05-30T16:11:14.953Z,0.70
2019-05-30T16:13:46.913Z,0.70
2019-05-30T16:16:33.763Z,1.33
2019-05-30T16:18:53.311Z,0.70
2019-05-30T16:21:31.537Z,0.70
2019-05-30T16:24:03.694Z,1.20
2019-05-30T16:26:34.967Z,0.70
2019-05-30T16:29:07.792Z,0.73
2019-05-30T16:31:40.566Z,0.70
2019-05-30T16:34:12.103Z,0.83
2019-05-30T16:36:44.527Z,0.65
2019-05-30T16:39:16.086Z,0.90
2019-05-30T16:41:47.132Z,0.80
2019-05-30T16:44:20.432Z,0.80
2019-05-30T16:46:54.971Z,0.73
2019-05-30T16:49:28.338Z,0.87
2019-05-30T16:52:00.908Z,0.80
2019-05-30T16:54:32.274Z,0.60
2019-05-30T16:57:03.513Z,0.60
2019-05-30T16:59:36.478Z,0.80
2019-05-30T17:02:08.228Z,1.00
2019-05-30T17:04:39.790Z,0.90
2019-05-30T17:07:11.130Z,0.80
2019-05-30T17:09:42.859Z,0.70
2019-05-30T17:12:15.335Z,0.75
2019-05-30T17:14:46.865Z,1.07
2019-05-30T17:17:18.236Z,0.87
2019-05-30T17:19:49.371Z,1.23
2019-05-30T17:22:20.809Z,1.10
2019-05-30T17:24:54.537Z,1.20
2019-05-30T17:30:15.956Z,0.90
2019-05-30T17:32:48.189Z,0.90
2019-05-30T17:35:20.102Z,1.10
2019-05-30T17:37:52.170Z,0.97
2019-05-30T17:40:39.111Z,0.80
2019-05-30T17:42:58.538Z,0.90
2019-05-30T17:45:30.347Z,1.20
2019-05-30T17:48:15.986Z,1.17
2019-05-30T17:50:38.207Z,1.20
2019-05-30T17:53:10.173Z,0.80
2019-05-30T17:55:42.375Z,0.87
2019-05-30T17:58:15.045Z,0.90
2019-05-30T18:00:46.490Z,1.90
2019-05-30T18:03:18.084Z,1.30
2019-05-30T18:05:49.782Z,1.27
2019-05-30T18:08:21.210Z,1.40
2019-05-30T18:10:54.023Z,1.17
2019-05-30T18:13:27.096Z,1.23
2019-05-30T18:16:03.758Z,1.30
2019-05-30T18:18:35.087Z,1.50
2019-05-30T18:21:07.274Z,1.70
2019-05-30T18:23:39.126Z,1.90
2019-05-30T18:26:11.890Z,1.47
2019-05-30T18:28:43.373Z,1.40
2019-05-30T18:31:15.297Z,1.50
2019-05-30T18:33:48.497Z,1.42
2019-05-30T18:36:19.744Z,1.30
2019-05-30T18:38:51.117Z,1.60
2019-05-30T18:41:22.710Z,1.57
2019-05-30T18:43:53.958Z,1.53
2019-05-30T18:46:25.139Z,1.90
2019-05-30T18:48:59.823Z,1.80
2019-05-30T18:51:34.371Z,1.80
2019-05-30T18:54:06.848Z,1.60
2019-05-30T18:56:41.128Z,2.10
2019-05-30T18:59:16.134Z,1.60
2019-05-30T19:01:50.725Z,2.30
2019-05-30T19:04:31.609Z,2.13
2019-05-30T19:07:05.123Z,2.07
2019-05-30T19:09:41.437Z,1.87
2019-05-30T19:12:17.042Z,1.90
2019-05-30T19:14:52.287Z,1.85
2019-05-30T19:17:25.706Z,2.34
2019-05-30T19:20:03.897Z,2.00
2019-05-30T19:22:37.461Z,2.10
2019-05-30T19:25:12.238Z,1.97
2019-05-30T19:27:51.547Z,1.93
2019-05-30T19:30:26.975Z,1.77
2019-05-30T19:33:01.306Z,2.20
2019-05-30T19:35:33.472Z,2.37
2019-05-30T19:38:06.460Z,2.30
2019-05-30T19:40:44.683Z,2.00
2019-05-30T19:43:19.438Z,2.33
2019-05-30T19:45:53.386Z,2.57
2019-05-30T19:48:25.405Z,2.00
2019-05-30T19:51:07.956Z,3.95
2019-05-30T19:53:44.469Z,2.70
2019-05-30T19:56:14.658Z,2.20
2019-05-30T19:58:52.235Z,2.93
2019-05-30T20:01:24.585Z,2.50
2019-05-30T20:03:57.118Z,2.50
2019-05-30T20:06:28.153Z,2.50
2019-05-30T20:09:00.068Z,2.33
2019-05-30T20:11:33.222Z,2.60
2019-05-30T20:14:04.622Z,3.35
2019-05-30T20:16:35.751Z,2.70
2019-05-30T20:19:07.099Z,2.67
2019-05-30T20:21:39.875Z,2.43
2019-05-30T20:24:10.581Z,2.60
2019-05-30T20:26:41.318Z,2.53
2019-05-30T20:29:12.688Z,2.53
2019-05-30T20:31:43.655Z,3.30
2019-05-30T20:34:14.308Z,2.63
2019-05-30T20:36:45.068Z,2.97
2019-05-30T20:39:15.705Z,2.93
2019-05-30T20:41:47.243Z,3.40
2019-05-30T20:44:18.119Z,3.13
2019-05-30T20:46:49.809Z,3.33
2019-05-30T20:49:20.113Z,3.00
2019-05-30T20:51:50.701Z,3.33
2019-05-30T20:54:21.237Z,3.40
2019-05-30T20:56:51.988Z,3.77
2019-05-30T20:59:25.516Z,3.80
2019-05-30T21:01:56.282Z,3.55
2019-05-30T21:04:26.795Z,4.30
2019-05-30T21:06:58.629Z,4.27
2019-05-30T21:09:30.322Z,3.77
2019-05-30T21:12:02.649Z,4.10
2019-05-30T21:14:35.541Z,4.57
2019-05-30T21:17:06.318Z,3.77
2019-05-30T21:19:37.777Z,4.47
2019-05-30T21:22:09.374Z,5.30
2019-05-30T21:24:40.650Z,3.83
2019-05-30T21:27:11.454Z,4.43
2019-05-30T21:29:43.068Z,4.37
2019-05-30T21:32:14.454Z,3.70
2019-05-30T21:34:46.588Z,3.93
2019-05-30T21:37:17.647Z,4.27
2019-05-30T21:39:49.065Z,4.13
2019-05-30T21:42:19.819Z,4.20
2019-05-30T21:44:52.758Z,4.30
2019-05-30T21:47:23.256Z,4.53
2019-05-30T21:49:53.559Z,4.40
2019-05-30T21:52:24.201Z,5.17
2019-05-30T21:54:54.504Z,3.93
2019-05-30T21:57:25.610Z,4.58
2019-05-30T21:59:56.202Z,4.15
2019-05-30T22:02:27.096Z,4.03
2019-05-30T22:04:57.263Z,4.67
2019-05-30T22:07:27.700Z,3.90
2019-05-30T22:09:57.946Z,4.17
2019-05-30T22:12:29.818Z,4.40
2019-05-30T22:15:00.319Z,4.37
2019-05-30T22:17:30.363Z,4.17
2019-05-30T22:20:01.446Z,3.50
2019-05-30T22:22:33.575Z,3.90
2019-05-30T22:25:04.623Z,4.28
2019-05-30T22:27:35.194Z,4.03
2019-05-30T22:30:06.842Z,4.10
2019-05-30T22:32:38.522Z,3.87
2019-05-30T22:35:10.148Z,5.00
2019-05-30T22:37:40.567Z,4.58
2019-05-30T22:40:11.543Z,4.67
2019-05-30T22:42:41.803Z,4.83
2019-05-30T22:45:12.228Z,5.80
2019-05-30T22:47:44.126Z,4.50
2019-05-30T22:50:31.063Z,5.40
2019-05-30T22:53:01.118Z,4.60
2019-05-30T22:55:31.340Z,4.90
2019-05-30T22:58:01.917Z,4.70
2019-05-30T23:00:32.175Z,5.60
2019-05-30T23:03:02.730Z,5.42
2019-05-30T23:05:33.013Z,5.83
2019-05-30T23:08:03.484Z,5.92
2019-05-30T23:10:34.824Z,5.00
2019-05-30T23:13:04.984Z,5.90
2019-05-30T23:15:36.203Z,5.93
2019-05-30T23:18:07.137Z,5.57
2019-05-30T23:20:37.180Z,5.28
2019-05-30T23:23:07.805Z,5.83
2019-05-30T23:25:37.672Z,5.77
2019-05-30T23:28:08.954Z,5.60
2019-05-30T23:30:39.250Z,5.90
2019-05-30T23:33:09.981Z,6.10
2019-05-30T23:35:40.275Z,5.60
2019-05-30T23:38:12.145Z,6.17
2019-05-30T23:40:42.901Z,6.07
2019-05-30T23:47:18.737Z,6.40
2019-05-30T23:49:51.661Z,7.20
2019-05-30T23:52:22.358Z,6.20
2019-05-30T23:54:52.732Z,7.00
2019-05-30T23:57:22.903Z,6.40
2019-05-30T23:59:54.751Z,6.70
